Hujirt, Mongolia
Current Conditions -  °F | °C
As of 10:00 PM on Sunday 25 Jan 2015 (Local Time) from ZMUB Reporting Station
Clear Clear  
Wind Chill: -31°   Ceiling: Unl
Heat Index: -13°   Visibility: 6mi
Dew Point: -18°   Wind: 9mph
Humidity: 77%   Direction: 330°NNW
Pressure: 30.45"   Gusts: NA
Location:  46.9°N, 102.77°E
Report Text: ZMUB 251400Z 33004MPS CAVOK M25/M28 Q1031 NOSIG RMK QFE664.5 70
Loading
Personal Weather Stations






























Interactive Weather Map New forecast layout! Learn more

10-Day Weather Forecast

Advertisements
Track Severe Weather on mobile